sensor_id;sensor_type;location;lat;lon;timestamp;pressure;altitude;pressure_sealevel;temperature;humidity
75855;BME280;64502;59.976;30.316;2023-04-15T00:00:25;102738.28;;;2.04;34.12
75855;BME280;64502;59.976;30.316;2023-04-15T00:02:50;102743.50;;;2.03;34.55
75855;BME280;64502;59.976;30.316;2023-04-15T00:05:17;102741.75;;;2.03;33.83
75855;BME280;64502;59.976;30.316;2023-04-15T00:07:42;102746.09;;;2.03;33.86
75855;BME280;64502;59.976;30.316;2023-04-15T00:10:09;102745.22;;;2.00;34.18
75855;BME280;64502;59.976;30.316;2023-04-15T00:12:34;102745.22;;;2.00;34.28
75855;BME280;64502;59.976;30.316;2023-04-15T00:15:00;102741.72;;;1.98;34.34
75855;BME280;64502;59.976;30.316;2023-04-15T00:17:26;102744.31;;;1.97;34.36
75855;BME280;64502;59.976;30.316;2023-04-15T00:19:52;102735.63;;;1.96;34.11
75855;BME280;64502;59.976;30.316;2023-04-15T00:22:18;102738.22;;;1.95;34.32
75855;BME280;64502;59.976;30.316;2023-04-15T00:24:44;102746.88;;;1.94;34.25
75855;BME280;64502;59.976;30.316;2023-04-15T00:27:09;102736.44;;;1.92;34.35
75855;BME280;64502;59.976;30.316;2023-04-15T00:29:35;102743.38;;;1.92;34.23
75855;BME280;64502;59.976;30.316;2023-04-15T00:32:01;102748.56;;;1.90;34.23
75855;BME280;64502;59.976;30.316;2023-04-15T00:34:27;102761.59;;;1.89;34.58
75855;BME280;64502;59.976;30.316;2023-04-15T00:36:53;102751.16;;;1.89;34.44
75855;BME280;64502;59.976;30.316;2023-04-15T00:39:19;102752.00;;;1.88;34.60
75855;BME280;64502;59.976;30.316;2023-04-15T00:41:45;102759.81;;;1.88;34.43
75855;BME280;64502;59.976;30.316;2023-04-15T00:44:10;102753.75;;;1.87;34.21
75855;BME280;64502;59.976;30.316;2023-04-15T00:46:37;102763.31;;;1.88;34.47
75855;BME280;64502;59.976;30.316;2023-04-15T00:49:04;102763.31;;;1.88;34.34
75855;BME280;64502;59.976;30.316;2023-04-15T00:51:31;102759.81;;;1.88;34.95
75855;BME280;64502;59.976;30.316;2023-04-15T00:53:58;102752.91;;;1.88;34.55
75855;BME280;64502;59.976;30.316;2023-04-15T00:56:25;102762.41;;;1.88;34.72
75855;BME280;64502;59.976;30.316;2023-04-15T00:58:52;102765.91;;;1.88;34.84
75855;BME280;64502;59.976;30.316;2023-04-15T01:01:23;102765.06;;;1.91;34.18
75855;BME280;64502;59.976;30.316;2023-04-15T01:03:50;102764.19;;;1.90;34.71
75855;BME280;64502;59.976;30.316;2023-04-15T01:06:16;102767.66;;;1.91;34.26
75855;BME280;64502;59.976;30.316;2023-04-15T01:08:42;102759.00;;;1.92;34.49
75855;BME280;64502;59.976;30.316;2023-04-15T01:11:09;102760.78;;;1.94;34.34
75855;BME280;64502;59.976;30.316;2023-04-15T01:13:36;102753.84;;;1.95;34.46
75855;BME280;64502;59.976;30.316;2023-04-15T01:16:02;102758.16;;;1.96;34.64
75855;BME280;64502;59.976;30.316;2023-04-15T01:18:28;102758.16;;;1.96;35.02
75855;BME280;64502;59.976;30.316;2023-04-15T01:20:54;102759.06;;;1.98;34.76
75855;BME280;64502;59.976;30.316;2023-04-15T01:23:23;102764.28;;;1.98;34.37
75855;BME280;64502;59.976;30.316;2023-04-15T01:25:49;102765.13;;;1.98;34.26
75855;BME280;64502;59.976;30.316;2023-04-15T01:28:15;102761.66;;;1.98;34.72
75855;BME280;64502;59.976;30.316;2023-04-15T01:30:41;102763.41;;;1.99;34.69
75855;BME280;64502;59.976;30.316;2023-04-15T01:33:07;102761.66;;;1.98;34.57
75855;BME280;64502;59.976;30.316;2023-04-15T01:35:33;102754.75;;;2.00;34.01
75855;BME280;64502;59.976;30.316;2023-04-15T01:38:06;102758.25;;;2.02;34.23
75855;BME280;64502;59.976;30.316;2023-04-15T01:40:33;102764.31;;;2.04;34.34
75855;BME280;64502;59.976;30.316;2023-04-15T01:42:59;102760.03;;;2.05;34.52
75855;BME280;64502;59.976;30.316;2023-04-15T01:45:25;102767.81;;;2.05;34.66
75855;BME280;64502;59.976;30.316;2023-04-15T01:47:51;102753.91;;;2.04;34.24
75855;BME280;64502;59.976;30.316;2023-04-15T01:50:17;102754.78;;;2.03;34.23
75855;BME280;64502;59.976;30.316;2023-04-15T01:52:43;102759.13;;;2.04;34.36
75855;BME280;64502;59.976;30.316;2023-04-15T01:55:09;102758.25;;;2.04;34.48
75855;BME280;64502;59.976;30.316;2023-04-15T01:57:34;102755.69;;;2.05;34.60
75855;BME280;64502;59.976;30.316;2023-04-15T02:00:01;102763.47;;;2.07;34.65
75855;BME280;64502;59.976;30.316;2023-04-15T02:02:26;102758.28;;;2.07;34.54
75855;BME280;64502;59.976;30.316;2023-04-15T02:04:52;102759.16;;;2.07;34.42
75855;BME280;64502;59.976;30.316;2023-04-15T02:07:17;102759.16;;;2.07;34.87
75855;BME280;64502;59.976;30.316;2023-04-15T02:09:43;102764.34;;;2.07;34.55
75855;BME280;64502;59.976;30.316;2023-04-15T02:12:10;102768.72;;;2.08;34.40
75855;BME280;64502;59.976;30.316;2023-04-15T02:14:35;102762.66;;;2.09;34.74
75855;BME280;64502;59.976;30.316;2023-04-15T02:17:01;102772.22;;;2.10;34.39
75855;BME280;64502;59.976;30.316;2023-04-15T02:19:32;102771.38;;;2.13;34.51
75855;BME280;64502;59.976;30.316;2023-04-15T02:21:58;102768.78;;;2.14;34.38
75855;BME280;64502;59.976;30.316;2023-04-15T02:24:24;102768.78;;;2.14;34.14
75855;BME280;64502;59.976;30.316;2023-04-15T02:26:50;102768.78;;;2.14;34.35
75855;BME280;64502;59.976;30.316;2023-04-15T02:29:15;102774.00;;;2.16;34.34
75855;BME280;64502;59.976;30.316;2023-04-15T02:31:41;102772.25;;;2.15;34.19
75855;BME280;64502;59.976;30.316;2023-04-15T02:34:07;102770.53;;;2.17;34.52
75855;BME280;64502;59.976;30.316;2023-04-15T02:36:33;102770.56;;;2.18;33.84
75855;BME280;64502;59.976;30.316;2023-04-15T02:38:59;102777.53;;;2.21;34.44
75855;BME280;64502;59.976;30.316;2023-04-15T02:41:25;102775.78;;;2.23;34.03
75855;BME280;64502;59.976;30.316;2023-04-15T02:43:52;102771.47;;;2.25;34.09
75855;BME280;64502;59.976;30.316;2023-04-15T02:46:18;102775.84;;;2.28;33.57
75855;BME280;64502;59.976;30.316;2023-04-15T02:48:43;102773.28;;;2.31;33.63
75855;BME280;64502;59.976;30.316;2023-04-15T02:51:14;102768.97;;;2.33;34.13
75855;BME280;64502;59.976;30.316;2023-04-15T02:53:39;102771.56;;;2.34;33.12
75855;BME280;64502;59.976;30.316;2023-04-15T02:56:06;102776.81;;;2.39;33.18
75855;BME280;64502;59.976;30.316;2023-04-15T02:58:31;102772.50;;;2.41;34.27
75855;BME280;64502;59.976;30.316;2023-04-15T03:00:59;102779.47;;;2.43;33.19
75855;BME280;64502;59.976;30.316;2023-04-15T03:03:24;102769.06;;;2.45;33.44
75855;BME280;64502;59.976;30.316;2023-04-15T03:05:50;102769.06;;;2.45;33.73
75855;BME280;64502;59.976;30.316;2023-04-15T03:08:16;102777.78;;;2.50;33.33
75855;BME280;64502;59.976;30.316;2023-04-15T03:10:41;102784.78;;;2.54;33.31
75855;BME280;64502;59.976;30.316;2023-04-15T03:13:07;102776.97;;;2.57;33.26
75855;BME280;64502;59.976;30.316;2023-04-15T03:15:32;102777.91;;;2.62;33.06
75855;BME280;64502;59.976;30.316;2023-04-15T03:17:58;102785.72;;;2.64;33.47
75855;BME280;64502;59.976;30.316;2023-04-15T03:20:23;102783.13;;;2.67;33.13
75855;BME280;64502;59.976;30.316;2023-04-15T03:22:49;102787.50;;;2.68;32.82
75855;BME280;64502;59.976;30.316;2023-04-15T03:25:14;102782.28;;;2.70;32.86
75855;BME280;64502;59.976;30.316;2023-04-15T03:27:40;102782.28;;;2.73;33.08
75855;BME280;64502;59.976;30.316;2023-04-15T03:30:06;102783.19;;;2.75;32.63
75855;BME280;64502;59.976;30.316;2023-04-15T03:32:33;102771.91;;;2.77;32.92
75855;BME280;64502;59.976;30.316;2023-04-15T03:34:58;102778.00;;;2.81;32.54
75855;BME280;64502;59.976;30.316;2023-04-15T03:37:24;102789.34;;;2.84;32.45
75855;BME280;64502;59.976;30.316;2023-04-15T03:39:49;102784.16;;;2.89;33.05
75855;BME280;64502;59.976;30.316;2023-04-15T03:42:15;102788.56;;;2.95;32.71
75855;BME280;64502;59.976;30.316;2023-04-15T03:44:40;102792.94;;;2.99;32.27
75855;BME280;64502;59.976;30.316;2023-04-15T03:47:06;102791.22;;;3.04;32.06
75855;BME280;64502;59.976;30.316;2023-04-15T03:49:31;102786.03;;;3.07;32.08
75855;BME280;64502;59.976;30.316;2023-04-15T03:51:57;102790.38;;;3.09;32.73
75855;BME280;64502;59.976;30.316;2023-04-15T03:54:23;102792.13;;;3.14;32.77
75855;BME280;64502;59.976;30.316;2023-04-15T03:56:49;102798.28;;;3.17;32.78
75855;BME280;64502;59.976;30.316;2023-04-15T03:59:15;102794.81;;;3.23;32.62
75855;BME280;64502;59.976;30.316;2023-04-15T04:01:40;102792.25;;;3.27;32.44
75855;BME280;64502;59.976;30.316;2023-04-15T04:04:06;102796.56;;;3.27;31.75
75855;BME280;64502;59.976;30.316;2023-04-15T04:06:32;102795.72;;;3.28;32.01
75855;BME280;64502;59.976;30.316;2023-04-15T04:08:57;102796.59;;;3.30;32.23
75855;BME280;64502;59.976;30.316;2023-04-15T04:11:22;102800.94;;;3.29;32.29
75855;BME280;64502;59.976;30.316;2023-04-15T04:13:48;102800.94;;;3.32;31.74
75855;BME280;64502;59.976;30.316;2023-04-15T04:16:13;102800.09;;;3.38;32.23
75855;BME280;64502;59.976;30.316;2023-04-15T04:18:39;102795.81;;;3.45;31.73
75855;BME280;64502;59.976;30.316;2023-04-15T04:21:04;102801.03;;;3.51;31.53
75855;BME280;64502;59.976;30.316;2023-04-15T04:23:30;102804.56;;;3.56;31.28
75855;BME280;64502;59.976;30.316;2023-04-15T04:25:55;102802.84;;;3.58;31.92
75855;BME280;64502;59.976;30.316;2023-04-15T04:28:21;102798.50;;;3.63;31.19
75855;BME280;64502;59.976;30.316;2023-04-15T04:30:46;102797.66;;;3.70;31.61
75855;BME280;64502;59.976;30.316;2023-04-15T04:33:12;102795.94;;;3.77;30.75
75855;BME280;64502;59.976;30.316;2023-04-15T04:35:37;102795.09;;;3.83;31.38
75855;BME280;64502;59.976;30.316;2023-04-15T04:38:03;102799.44;;;3.87;31.17
75855;BME280;64502;59.976;30.316;2023-04-15T04:40:29;102801.22;;;3.91;30.32
75855;BME280;64502;59.976;30.316;2023-04-15T04:42:54;102797.72;;;3.98;30.96
75855;BME280;64502;59.976;30.316;2023-04-15T04:45:20;102795.16;;;4.03;30.22
75855;BME280;64502;59.976;30.316;2023-04-15T04:47:45;102799.50;;;4.08;31.20
75855;BME280;64502;59.976;30.316;2023-04-15T04:50:12;102799.53;;;4.16;30.46
75855;BME280;64502;59.976;30.316;2023-04-15T04:52:37;102804.75;;;4.22;31.12
75855;BME280;64502;59.976;30.316;2023-04-15T04:55:03;102807.38;;;4.25;31.11
75855;BME280;64502;59.976;30.316;2023-04-15T04:57:29;102807.41;;;4.30;30.71
75855;BME280;64502;59.976;30.316;2023-04-15T04:59:55;102805.66;;;4.36;30.78
75855;BME280;64502;59.976;30.316;2023-04-15T05:02:20;102802.19;;;4.43;31.10
75855;BME280;64502;59.976;30.316;2023-04-15T05:04:46;102801.31;;;4.48;30.73
75855;BME280;64502;59.976;30.316;2023-04-15T05:07:12;102808.28;;;4.52;30.08
75855;BME280;64502;59.976;30.316;2023-04-15T05:09:37;102810.91;;;4.58;29.58
75855;BME280;64502;59.976;30.316;2023-04-15T05:12:03;102812.66;;;4.57;30.27
75855;BME280;64502;59.976;30.316;2023-04-15T05:14:28;102801.31;;;4.57;30.78
75855;BME280;64502;59.976;30.316;2023-04-15T05:16:54;102803.94;;;4.57;30.22
75855;BME280;64502;59.976;30.316;2023-04-15T05:19:20;102814.38;;;4.63;30.65
75855;BME280;64502;59.976;30.316;2023-04-15T05:21:46;102807.41;;;4.71;30.98
75855;BME280;64502;59.976;30.316;2023-04-15T05:24:11;102810.03;;;4.83;29.95
75855;BME280;64502;59.976;30.316;2023-04-15T05:26:37;102810.91;;;4.92;30.54
75855;BME280;64502;59.976;30.316;2023-04-15T05:29:02;102814.38;;;5.03;30.18
75855;BME280;64502;59.976;30.316;2023-04-15T05:31:27;102818.72;;;5.11;29.58
75855;BME280;64502;59.976;30.316;2023-04-15T05:33:53;102815.22;;;5.22;30.21
75855;BME280;64502;59.976;30.316;2023-04-15T05:36:18;102814.31;;;5.29;29.87
75855;BME280;64502;59.976;30.316;2023-04-15T05:38:44;102807.34;;;5.28;30.29
75855;BME280;64502;59.976;30.316;2023-04-15T05:41:10;102813.41;;;5.34;30.37
75855;BME280;64502;59.976;30.316;2023-04-15T05:43:35;102814.28;;;5.46;29.22
75855;BME280;64502;59.976;30.316;2023-04-15T05:46:00;102811.63;;;5.60;30.02
75855;BME280;64502;59.976;30.316;2023-04-15T05:48:26;102800.19;;;5.74;29.43
75855;BME280;64502;59.976;30.316;2023-04-15T05:50:51;102812.34;;;5.86;28.80
75855;BME280;64502;59.976;30.316;2023-04-15T05:53:17;102800.13;;;5.91;29.01
75855;BME280;64502;59.976;30.316;2023-04-15T05:55:42;102808.00;;;5.97;29.16
75855;BME280;64502;59.976;30.316;2023-04-15T05:58:08;102802.72;;;6.02;29.64
75855;BME280;64502;59.976;30.316;2023-04-15T06:00:33;102801.81;;;6.06;28.47
75855;BME280;64502;59.976;30.316;2023-04-15T06:02:59;102812.25;;;6.12;28.88
75855;BME280;64502;59.976;30.316;2023-04-15T06:05:25;102808.72;;;6.21;29.03
75855;BME280;64502;59.976;30.316;2023-04-15T06:07:50;102812.16;;;6.31;29.03
75855;BME280;64502;59.976;30.316;2023-04-15T06:10:17;102814.72;;;6.41;28.47
75855;BME280;64502;59.976;30.316;2023-04-15T06:12:42;102816.38;;;6.49;27.77
75855;BME280;64502;59.976;30.316;2023-04-15T06:15:08;102812.00;;;6.52;28.02
75855;BME280;64502;59.976;30.316;2023-04-15T06:17:37;102807.56;;;6.57;27.09
75855;BME280;64502;59.976;30.316;2023-04-15T06:20:02;102816.25;;;6.65;27.70
75855;BME280;64502;59.976;30.316;2023-04-15T06:22:28;102814.47;;;6.71;27.52
75855;BME280;64502;59.976;30.316;2023-04-15T06:24:53;102817.88;;;6.79;27.60
75855;BME280;64502;59.976;30.316;2023-04-15T06:27:19;102811.72;;;6.84;26.68
75855;BME280;64502;59.976;30.316;2023-04-15T06:29:45;102809.06;;;6.89;27.16
75855;BME280;64502;59.976;30.316;2023-04-15T06:32:10;102808.13;;;6.95;27.54
75855;BME280;64502;59.976;30.316;2023-04-15T06:34:36;102811.59;;;6.98;26.67
75855;BME280;64502;59.976;30.316;2023-04-15T06:37:02;102810.69;;;7.04;27.36
75855;BME280;64502;59.976;30.316;2023-04-15T06:39:27;102810.59;;;7.11;26.59
75855;BME280;64502;59.976;30.316;2023-04-15T06:41:52;102808.72;;;7.23;26.99
75855;BME280;64502;59.976;30.316;2023-04-15T06:44:18;102812.09;;;7.36;26.89
75855;BME280;64502;59.976;30.316;2023-04-15T06:46:43;102804.09;;;7.48;25.50
75855;BME280;64502;59.976;30.316;2023-04-15T06:49:09;102804.81;;;7.59;26.29
75855;BME280;64502;59.976;30.316;2023-04-15T06:51:35;102797.63;;;7.72;25.41
75855;BME280;64502;59.976;30.316;2023-04-15T06:54:01;102796.63;;;7.82;25.95
75855;BME280;64502;59.976;30.316;2023-04-15T06:56:30;102798.25;;;7.92;25.05
75855;BME280;64502;59.976;30.316;2023-04-15T06:58:56;102799.88;;;8.01;25.98
75855;BME280;64502;59.976;30.316;2023-04-15T07:01:21;102805.91;;;8.09;25.55
75855;BME280;64502;59.976;30.316;2023-04-15T07:03:47;102805.91;;;8.09;25.35
75855;BME280;64502;59.976;30.316;2023-04-15T07:06:12;102812.78;;;8.19;25.87
75855;BME280;64502;59.976;30.316;2023-04-15T07:08:38;102799.56;;;8.24;24.89
75855;BME280;64502;59.976;30.316;2023-04-15T07:11:04;102809.94;;;8.32;25.82
75855;BME280;64502;59.976;30.316;2023-04-15T07:13:30;102806.31;;;8.42;25.04
75855;BME280;64502;59.976;30.316;2023-04-15T07:15:56;102808.84;;;8.50;24.72
75855;BME280;64502;59.976;30.316;2023-04-15T07:18:22;102806.28;;;8.45;25.34
75855;BME280;64502;59.976;30.316;2023-04-15T07:20:48;102807.19;;;8.44;24.69
75855;BME280;64502;59.976;30.316;2023-04-15T07:23:13;102815.13;;;8.41;25.85
75855;BME280;64502;59.976;30.316;2023-04-15T07:25:38;102814.28;;;8.34;25.04
75855;BME280;64502;59.976;30.316;2023-04-15T07:28:04;102813.34;;;8.41;25.07
75855;BME280;64502;59.976;30.316;2023-04-15T07:30:29;102807.03;;;8.53;25.04
75855;BME280;64502;59.976;30.316;2023-04-15T07:32:57;102807.59;;;8.72;25.16
75855;BME280;64502;59.976;30.316;2023-04-15T07:35:22;102816.00;;;8.94;24.72
75855;BME280;64502;59.976;30.316;2023-04-15T07:37:49;102811.31;;;9.10;24.06
75855;BME280;64502;59.976;30.316;2023-04-15T07:40:15;102812.84;;;9.23;23.93
75855;BME280;64502;59.976;30.316;2023-04-15T07:42:41;102810.84;;;9.34;23.81
75855;BME280;64502;59.976;30.316;2023-04-15T07:45:07;102812.44;;;9.43;23.32
75855;BME280;64502;59.976;30.316;2023-04-15T07:47:34;102815.72;;;9.54;23.12
75855;BME280;64502;59.976;30.316;2023-04-15T07:49:59;102805.97;;;9.60;23.71
75855;BME280;64502;59.976;30.316;2023-04-15T07:52:26;102810.38;;;9.59;23.09
75855;BME280;64502;59.976;30.316;2023-04-15T07:54:52;102808.53;;;9.63;22.92
75855;BME280;64502;59.976;30.316;2023-04-15T07:57:17;102815.63;;;9.61;23.62
75855;BME280;64502;59.976;30.316;2023-04-15T07:59:43;102808.44;;;9.67;23.82
75855;BME280;64502;59.976;30.316;2023-04-15T08:02:08;102808.31;;;9.73;24.17
75855;BME280;64502;59.976;30.316;2023-04-15T08:04:35;102811.53;;;9.88;23.65
75855;BME280;64502;59.976;30.316;2023-04-15T08:07:02;102808.53;;;10.03;23.02
75855;BME280;64502;59.976;30.316;2023-04-15T08:09:28;102816.13;;;10.18;22.12
75855;BME280;64502;59.976;30.316;2023-04-15T08:11:54;102807.44;;;10.15;23.14
75855;BME280;64502;59.976;30.316;2023-04-15T08:14:20;102807.53;;;10.09;23.55
75855;BME280;64502;59.976;30.316;2023-04-15T08:16:46;102806.59;;;10.13;23.35
75855;BME280;64502;59.976;30.316;2023-04-15T08:19:12;102800.16;;;10.25;23.06
75855;BME280;64502;59.976;30.316;2023-04-15T08:21:38;102800.72;;;10.39;22.95
75855;BME280;64502;59.976;30.316;2023-04-15T08:24:04;102797.63;;;10.57;22.67
75855;BME280;64502;59.976;30.316;2023-04-15T08:26:30;102789.19;;;10.77;22.13
75855;BME280;64502;59.976;30.316;2023-04-15T08:28:55;102794.00;;;10.96;21.88
75855;BME280;64502;59.976;30.316;2023-04-15T08:31:21;102791.19;;;11.02;22.36
75855;BME280;64502;59.976;30.316;2023-04-15T08:33:47;102791.91;;;11.08;21.89
75855;BME280;64502;59.976;30.316;2023-04-15T08:36:13;102784.69;;;11.15;22.01
75855;BME280;64502;59.976;30.316;2023-04-15T08:38:38;102788.91;;;11.22;21.87
75855;BME280;64502;59.976;30.316;2023-04-15T08:41:25;102793.78;;;11.36;22.04
75855;BME280;64502;59.976;30.316;2023-04-15T08:43:56;102787.59;;;11.37;22.22
75855;BME280;64502;59.976;30.316;2023-04-15T08:46:22;102782.16;;;11.43;21.45
75855;BME280;64502;59.976;30.316;2023-04-15T08:48:48;102783.75;;;11.49;21.35
75855;BME280;64502;59.976;30.316;2023-04-15T08:51:15;102776.50;;;11.55;20.92
75855;BME280;64502;59.976;30.316;2023-04-15T08:53:42;102782.63;;;11.56;20.43
75855;BME280;64502;59.976;30.316;2023-04-15T08:56:09;102784.47;;;11.54;19.91
75855;BME280;64502;59.976;30.316;2023-04-15T08:58:37;102782.53;;;11.59;22.07
75855;BME280;64502;59.976;30.316;2023-04-15T09:01:02;102780.72;;;11.61;20.56
75855;BME280;64502;59.976;30.316;2023-04-15T09:03:29;102776.16;;;11.68;20.56
75855;BME280;64502;59.976;30.316;2023-04-15T09:05:56;102777.03;;;11.67;20.18
75855;BME280;64502;59.976;30.316;2023-04-15T09:08:21;102767.78;;;11.52;20.75
75855;BME280;64502;59.976;30.316;2023-04-15T09:10:47;102770.53;;;11.49;20.75
75855;BME280;64502;59.976;30.316;2023-04-15T09:13:12;102773.66;;;11.62;20.13
75855;BME280;64502;59.976;30.316;2023-04-15T09:15:38;102768.75;;;11.79;19.76
75855;BME280;64502;59.976;30.316;2023-04-15T09:18:04;102773.22;;;12.07;19.83
75855;BME280;64502;59.976;30.316;2023-04-15T09:20:38;102766.88;;;12.39;20.26
75855;BME280;64502;59.976;30.316;2023-04-15T09:23:11;102770.06;;;12.75;19.48
75855;BME280;64502;59.976;30.316;2023-04-15T09:25:39;102760.34;;;13.01;18.54
75855;BME280;64502;59.976;30.316;2023-04-15T09:28:04;102761.81;;;13.09;19.17
75855;BME280;64502;59.976;30.316;2023-04-15T09:30:30;102751.38;;;13.30;19.85
75855;BME280;64502;59.976;30.316;2023-04-15T09:33:00;102760.72;;;13.40;19.15
75855;BME280;64502;59.976;30.316;2023-04-15T09:35:33;102758.91;;;13.41;19.35
75855;BME280;64502;59.976;30.316;2023-04-15T09:38:07;102742.03;;;13.67;18.63
75855;BME280;64502;59.976;30.316;2023-04-15T09:40:36;102748.00;;;13.94;18.20
75855;BME280;64502;59.976;30.316;2023-04-15T09:43:05;102752.66;;;14.11;18.30
75855;BME280;64502;59.976;30.316;2023-04-15T09:45:31;102749.81;;;14.15;19.02
75855;BME280;64502;59.976;30.316;2023-04-15T09:47:58;102744.63;;;14.12;17.44
75855;BME280;64502;59.976;30.316;2023-04-15T09:50:28;102750.44;;;14.00;18.89
75855;BME280;64502;59.976;30.316;2023-04-15T09:52:54;102754.81;;;13.55;18.82
75855;BME280;64502;59.976;30.316;2023-04-15T09:55:20;102743.72;;;13.46;18.64
75855;BME280;64502;59.976;30.316;2023-04-15T09:57:47;102757.00;;;13.44;18.97
75855;BME280;64502;59.976;30.316;2023-04-15T10:00:13;102755.78;;;13.53;19.21
75855;BME280;64502;59.976;30.316;2023-04-15T10:02:39;102755.63;;;13.58;18.91
75855;BME280;64502;59.976;30.316;2023-04-15T10:05:09;102746.81;;;13.57;18.68
75855;BME280;64502;59.976;30.316;2023-04-15T10:07:37;102753.09;;;13.54;18.92
75855;BME280;64502;59.976;30.316;2023-04-15T10:10:03;102750.56;;;13.51;18.37
75855;BME280;64502;59.976;30.316;2023-04-15T10:12:30;102751.38;;;13.53;18.29
75855;BME280;64502;59.976;30.316;2023-04-15T10:14:58;102755.47;;;13.62;18.85
75855;BME280;64502;59.976;30.316;2023-04-15T10:17:27;102749.06;;;13.68;18.95
75855;BME280;64502;59.976;30.316;2023-04-15T10:20:00;102748.31;;;13.64;17.83
75855;BME280;64502;59.976;30.316;2023-04-15T10:22:27;102757.94;;;13.67;18.80
75855;BME280;64502;59.976;30.316;2023-04-15T10:24:55;102742.69;;;13.72;18.84
75855;BME280;64502;59.976;30.316;2023-04-15T10:27:20;102755.91;;;13.73;18.60
75855;BME280;64502;59.976;30.316;2023-04-15T10:29:48;102751.78;;;13.43;18.98
75855;BME280;64502;59.976;30.316;2023-04-15T10:32:15;102750.81;;;13.45;18.45
75855;BME280;64502;59.976;30.316;2023-04-15T10:34:41;102744.97;;;13.59;18.37
75855;BME280;64502;59.976;30.316;2023-04-15T10:37:08;102745.81;;;13.83;19.13
75855;BME280;64502;59.976;30.316;2023-04-15T10:42:15;102741.94;;;14.34;17.84
75855;BME280;64502;59.976;30.316;2023-04-15T10:44:42;102738.03;;;14.43;18.50
75855;BME280;64502;59.976;30.316;2023-04-15T10:47:13;102736.75;;;14.53;17.61
75855;BME280;64502;59.976;30.316;2023-04-15T10:49:44;102737.84;;;14.70;16.15
75855;BME280;64502;59.976;30.316;2023-04-15T10:52:10;102740.16;;;14.77;16.62
75855;BME280;64502;59.976;30.316;2023-04-15T10:54:37;102732.84;;;14.82;17.32
75855;BME280;64502;59.976;30.316;2023-04-15T10:59:35;102728.94;;;14.91;17.40
75855;BME280;64502;59.976;30.316;2023-04-15T11:02:03;102729.41;;;14.80;16.70
75855;BME280;64502;59.976;30.316;2023-04-15T11:12:52;102727.94;;;14.53;16.82
75855;BME280;64502;59.976;30.316;2023-04-15T11:20:34;102729.84;;;14.70;17.37
75855;BME280;64502;59.976;30.316;2023-04-15T11:23:00;102723.56;;;14.72;16.05
75855;BME280;64502;59.976;30.316;2023-04-15T11:25:31;102715.00;;;14.65;17.11
75855;BME280;64502;59.976;30.316;2023-04-15T11:27:58;102712.97;;;14.50;17.28
75855;BME280;64502;59.976;30.316;2023-04-15T11:30:26;102719.00;;;14.33;17.04
75855;BME280;64502;59.976;30.316;2023-04-15T11:32:53;102722.84;;;14.04;17.69
75855;BME280;64502;59.976;30.316;2023-04-15T11:35:20;102724.69;;;13.80;16.94
75855;BME280;64502;59.976;30.316;2023-04-15T11:37:47;102720.16;;;13.60;17.05
75855;BME280;64502;59.976;30.316;2023-04-15T11:40:13;102718.88;;;13.48;17.17
75855;BME280;64502;59.976;30.316;2023-04-15T11:42:43;102725.47;;;13.37;18.26
75855;BME280;64502;59.976;30.316;2023-04-15T11:45:11;102723.50;;;13.18;18.26
75855;BME280;64502;59.976;30.316;2023-04-15T11:47:38;102718.88;;;13.00;18.52
75855;BME280;64502;59.976;30.316;2023-04-15T11:50:20;102722.16;;;12.81;18.74
75855;BME280;64502;59.976;30.316;2023-04-15T11:53:00;102727.34;;;12.59;19.17
75855;BME280;64502;59.976;30.316;2023-04-15T11:55:28;102721.72;;;12.43;18.29
75855;BME280;64502;59.976;30.316;2023-04-15T11:58:11;102718.91;;;12.48;19.19
75855;BME280;64502;59.976;30.316;2023-04-15T12:00:38;102721.88;;;12.39;18.50
75855;BME280;64502;59.976;30.316;2023-04-15T12:03:23;102714.06;;;12.36;18.95
75855;BME280;64502;59.976;30.316;2023-04-15T12:08:47;102716.34;;;12.20;19.56
75855;BME280;64502;59.976;30.316;2023-04-15T12:11:14;102709.09;;;11.98;19.37
75855;BME280;64502;59.976;30.316;2023-04-15T12:13:44;102707.44;;;11.94;18.81
75855;BME280;64502;59.976;30.316;2023-04-15T12:16:10;102697.06;;;11.88;20.27
75855;BME280;64502;59.976;30.316;2023-04-15T12:18:39;102704.97;;;11.90;20.20
75855;BME280;64502;59.976;30.316;2023-04-15T12:21:09;102701.50;;;11.88;18.99
75855;BME280;64502;59.976;30.316;2023-04-15T12:23:39;102697.88;;;11.90;19.50
75855;BME280;64502;59.976;30.316;2023-04-15T12:26:12;102701.28;;;11.94;19.29
75855;BME280;64502;59.976;30.316;2023-04-15T12:28:40;102693.22;;;11.98;19.41
75855;BME280;64502;59.976;30.316;2023-04-15T12:31:10;102692.09;;;12.06;20.25
75855;BME280;64502;59.976;30.316;2023-04-15T12:33:37;102689.28;;;12.10;19.88
75855;BME280;64502;59.976;30.316;2023-04-15T12:36:03;102687.97;;;11.97;20.25
75855;BME280;64502;59.976;30.316;2023-04-15T12:38:29;102678.25;;;11.97;19.73
75855;BME280;64502;59.976;30.316;2023-04-15T12:40:55;102690.22;;;12.09;19.40
75855;BME280;64502;59.976;30.316;2023-04-15T12:43:21;102673.13;;;12.19;19.16
75855;BME280;64502;59.976;30.316;2023-04-15T12:45:46;102680.28;;;12.42;19.85
75855;BME280;64502;59.976;30.316;2023-04-15T12:48:13;102665.59;;;12.59;20.28
75855;BME280;64502;59.976;30.316;2023-04-15T12:50:38;102673.75;;;12.78;19.52
75855;BME280;64502;59.976;30.316;2023-04-15T12:53:04;102676.13;;;13.09;19.32
75855;BME280;64502;59.976;30.316;2023-04-15T12:55:30;102675.16;;;13.35;18.33
75855;BME280;64502;59.976;30.316;2023-04-15T12:57:56;102663.91;;;13.52;17.92
75855;BME280;64502;59.976;30.316;2023-04-15T13:00:22;102667.06;;;13.62;18.08
75855;BME280;64502;59.976;30.316;2023-04-15T13:02:47;102668.19;;;13.56;17.58